Pokaż wyniki od 1 do 3 z 3
  1. #1
    Awatar pol574

    Dołączył
    May 2008
    Mieszka w
    CICHE/Zakopane

    Domyślnie 2010.07.28 Boeing B737-700 Mauritania Airways wypadł z pasa startowego.


    Polecamy

    Boeing B737-700 Mauretańskich linii lotniczych lecący z Dakaru (Senegal) do Konakry (Gwinea) z 91 pasażerami i 6 osobami załogi na pokładzie. Wypadł z pasa podczas lądowania na pasie 06 w bardzo gęstym deszczu i tylnym wietrze, maszyna nie wyhamował na pasie o długości 3300m,ścięła anteny lokalizatora i wyjechała za pas na 130m. Na szczęście nikt poważnie nie ucierpiał, rannych zostało 10 pasażerów.

    A Mauritania Airways Boeing 737-700, registration TS-IEA performing flight YD-620 (dep Jul 27th) from Dakar (Senegal) to Conakry (Guinea) with 91 passengers and 6 crew, overran Conakry's runway 06 (length 3300 meters/10800 feet) while landing at the airport in heavy rain and tailwind at approximately 01:30L (01:30Z). The airplane broke through the localizer antenna and came to a stand still about 130 meters past the end of paved surface. 10 occupants received minor injuries. Avherald.com


    Sprzęt:Canon EOS 550D+GSO 10"+GSO 2x.
    My Airport Ciche-Baligowiec 1:400

  2. #2

    Dołączył
    Apr 2010

    Domyślnie

    takie incydenty już się zdarzały, szczególnie podczas silnych opadów deszczu

  3. #3
    Awatar TrustMeIAmADoctor

    Dołączył
    Jun 2009
    Mieszka w
    Crabapple Cove

    Domyślnie


    Polecamy

    Metars:
    GUCY 281000Z 22008KT 9999 BKN013 BKN110 26/25 Q1013 NOSIG
    GUCY 280900Z 21010KT 9999 BKN013 BKN110 26/25 Q1013 NSG
    GUCY 280800Z 21012KT 9999 BKN013 BKN110 26/25 Q1012 RETSRA
    GUCY 272300Z 06004KT 9999 SCT015 BKN110 26/25 Q1012 NSG
    GUCY 272200Z 27004KT 9999 SCT015 BKN110 26/25 Q1010 NSG
    GUCY 272100Z 24006KT 9999 BKN015 BKN110 26/25 Q1011 NOSIG

Uprawnienia umieszczania postów

  • Nie możesz zakładać nowych tematów
  • Nie możesz pisać wiadomości
  • Nie możesz dodawać załączników
  • Nie możesz edytować swoich postów
  •